マンチェスター の空港の天気 - METARとTAF

マンチェスター空港 ( EGCC / MAN ) - イギリス マンチェスター
飛行場実況気象(Metar)
観測時間02/01 15:50 GMT (02/01 15:50 UTC)
風向・風速西 8m/s
視程10km以上
天気現象
全天の8割程度の雲 雲底高度 670m
気温9℃
湿度76%
気圧1022hPa
METAREGCC 011550Z 27016KT 9999 BKN022 09/05 Q1022
過去の天気等 Google飛行場航空写真 Wunderground天気予報

過去48時間のMETAR

飛行場予報(TAF)
発表時間: 2/01 10:53 GMT (2/01 10:53 UTC)
予報対象時間: 1日12時 GMT ~ 2日18時 GMT
風向・風速西 9m/s
視程10km以上
全天の4割程度の雲 雲底高度 910m
1日12時 GMT ~ 1日15時 GMT に一時的に
風向・風速西 10m/s 瞬間風速 15m/s
視程6000m
天気現象弱い雨霧雨
1日12時 GMT ~ 1日15時 GMT に 確率 30% で一時的に
視程4000m
天気現象雨霧雨
全天の8割程度の雲 雲底高度 370m
1日23時 GMT ~ 2日2時 GMT に徐々に
風向・風速西南西 4m/s
2日2時 GMT ~ 2日6時 GMT に 確率 30% で一時的に
視程7000m
天気現象
全天の8割程度の雲 雲底高度 370m
TAF EGCC 011053Z 0112/0218 26017KT 9999 SCT030
TEMPO 0112/0115 27020G30KT 6000 -RADZ
PROB30 TEMPO 0112/0115 4000 RADZ BKN012
BECMG 0123/0202 24007KT
PROB30 TEMPO 0202/0206 7000 RA BKN012